Terminal Aerodrome Forecast
Issued by NWS

Home | Current Version | Previous Version | Text Only | Print | Product List | Glossary On
Versions: 1 2 3 4 5 6 7 8 9 10 11 12 13 14 15 16 17 18 19 20 21 22 23 24 25 26 27 28 29 30
000
FTUS41 KOKX 302340
TAFHPN
TAF
KHPN 302340Z 0100/0124 12010KT P6SM SCT015 OVC035
     FM010300 12008KT 6SM BR FEW008 OVC012
     FM010500 11005KT 4SM BR FEW003 OVC005
     FM010700 VRB03KT 2SM -DZ BR OVC003
     FM010900 VRB02KT 1/2SM -DZ FG VV002
     FM011600 10008KT 3SM BR SCT004 BKN007
     FM011800 13010KT 6SM BR SCT007 BKN015
     FM012100 18015G21KT P6SM SCT025 SCT250
      AMD NOT SKED=

USA.gov is the U.S. government's official web portal to all federal, state and local government web resources and services.